Time;durP1;ratioP1;P1;durP2;ratioP2;P2;SDS_P1;SDS_P2;PMS_P1;PMS_P2;Temp;Humidity;BMP_temperature;BMP_pressure;BME280_temperature;BME280_humidity;BME280_pressure;Samples;Min_cycle;Max_cycle;Signal;HPM_P1;HPM_P2
2023/08/26 00:02:49;;;;;;;5.63;5.05;;;;;;;;;;10354937;28;20087;-63
2023/08/26 00:07:47;;;;;;;6.10;5.50;;;;;;;;;;10355337;28;20075;-63
2023/08/26 00:12:47;;;;;;;6.32;5.72;;;;;;;;;;10337257;28;20074;-63
2023/08/26 00:17:45;;;;;;;6.13;5.53;;;;;;;;;;10353594;28;20480;-62
2023/08/26 00:22:43;;;;;;;7.60;6.90;;;;;;;;;;10355385;28;20060;-61
2023/08/26 00:27:41;;;;;;;7.97;6.57;;;;;;;;;;10355186;28;20078;-62
2023/08/26 00:32:41;;;;;;;7.55;5.55;;;;;;;;;;10353752;28;20338;-61
2023/08/26 00:37:42;;;;;;;6.25;5.72;;;;;;;;;;10335997;28;20066;-62
2023/08/26 00:42:40;;;;;;;6.43;5.82;;;;;;;;;;10354907;28;20363;-62
2023/08/26 00:47:39;;;;;;;5.97;5.53;;;;;;;;;;10352926;28;20079;-63
2023/08/26 00:52:40;;;;;;;5.90;5.30;;;;;;;;;;10335630;28;20555;-62
2023/08/26 00:57:38;;;;;;;6.63;5.95;;;;;;;;;;10352411;28;20074;-62
2023/08/26 01:02:36;;;;;;;6.53;5.07;;;;;;;;;;10353383;28;20067;-63
2023/08/26 01:07:35;;;;;;;5.68;5.18;;;;;;;;;;10352413;28;20075;-62
2023/08/26 01:12:41;;;;;;;6.03;5.43;;;;;;;;;;10335525;28;20072;-62
2023/08/26 01:17:39;;;;;;;7.78;5.32;;;;;;;;;;10340614;28;20091;-62
2023/08/26 01:22:38;;;;;;;5.63;5.07;;;;;;;;;;10356342;28;20068;-63
2023/08/26 01:27:37;;;;;;;6.85;5.35;;;;;;;;;;10356562;28;20083;-62
2023/08/26 01:32:38;;;;;;;8.00;5.32;;;;;;;;;;10361548;28;20067;-62
2023/08/26 01:37:38;;;;;;;6.80;5.40;;;;;;;;;;10343003;28;20094;-63
2023/08/26 01:42:40;;;;;;;7.40;6.00;;;;;;;;;;10361953;28;20071;-63
2023/08/26 01:47:39;;;;;;;5.80;5.30;;;;;;;;;;10362094;28;20477;-63
2023/08/26 01:52:37;;;;;;;7.90;5.68;;;;;;;;;;10361932;28;20064;-62
2023/08/26 01:57:35;;;;;;;6.22;5.10;;;;;;;;;;10343045;28;20063;-62
2023/08/26 02:02:35;;;;;;;11.38;5.65;;;;;;;;;;10342959;28;20067;-63
2023/08/26 02:07:33;;;;;;;6.20;5.00;;;;;;;;;;10343093;28;20087;-63
2023/08/26 02:12:33;;;;;;;6.82;4.57;;;;;;;;;;10342833;28;20071;-63
2023/08/26 02:17:33;;;;;;;6.63;5.35;;;;;;;;;;10359954;28;20070;-63
2023/08/26 02:22:33;;;;;;;9.57;4.90;;;;;;;;;;10341874;28;20080;-63
2023/08/26 02:27:32;;;;;;;5.72;5.18;;;;;;;;;;10360357;28;20072;-62
2023/08/26 02:32:30;;;;;;;6.55;4.30;;;;;;;;;;10358955;28;20174;-62
2023/08/26 02:37:28;;;;;;;5.65;4.68;;;;;;;;;;10341043;28;20087;-62
2023/08/26 02:42:29;;;;;;;5.25;4.82;;;;;;;;;;10360311;28;20068;-63
2023/08/26 02:47:27;;;;;;;6.32;4.50;;;;;;;;;;10341251;28;20109;-63
2023/08/26 02:52:25;;;;;;;5.40;4.70;;;;;;;;;;10357598;28;20508;-63
2023/08/26 02:57:25;;;;;;;8.65;5.03;;;;;;;;;;10358032;28;20508;-63
2023/08/26 03:02:25;;;;;;;11.32;5.10;;;;;;;;;;10340438;28;20420;-63
2023/08/26 03:07:24;;;;;;;6.55;4.95;;;;;;;;;;10339765;28;20083;-63
2023/08/26 03:12:22;;;;;;;5.03;4.57;;;;;;;;;;10357653;28;20044;-61
2023/08/26 03:17:21;;;;;;;5.75;5.25;;;;;;;;;;10340315;28;20048;-65
2023/08/26 03:22:20;;;;;;;6.45;5.03;;;;;;;;;;10358708;28;20072;-63
2023/08/26 03:27:20;;;;;;;6.50;5.22;;;;;;;;;;10339214;28;20097;-63
2023/08/26 03:32:18;;;;;;;5.65;4.95;;;;;;;;;;10339711;28;20047;-63
2023/08/26 03:37:16;;;;;;;6.55;4.38;;;;;;;;;;10339174;28;20482;-63
2023/08/26 03:42:16;;;;;;;6.70;5.38;;;;;;;;;;10332180;28;20075;-63
2023/08/26 03:47:14;;;;;;;6.45;5.32;;;;;;;;;;10355995;28;20071;-64
2023/08/26 03:52:13;;;;;;;5.45;4.95;;;;;;;;;;10339217;28;20076;-64
2023/08/26 03:57:11;;;;;;;7.05;5.18;;;;;;;;;;10348172;28;20082;-63
2023/08/26 04:02:10;;;;;;;8.13;4.85;;;;;;;;;;10340926;28;20044;-63
2023/08/26 04:07:09;;;;;;;6.20;5.70;;;;;;;;;;10337222;28;20078;-64
2023/08/26 04:12:10;;;;;;;7.25;5.07;;;;;;;;;;10338487;28;20080;-64
2023/08/26 04:17:08;;;;;;;5.80;5.20;;;;;;;;;;10337227;28;20078;-64
2023/08/26 04:22:08;;;;;;;10.73;5.60;;;;;;;;;;10355985;28;20067;-64
2023/08/26 04:27:06;;;;;;;6.07;5.22;;;;;;;;;;10337317;28;20091;-64
2023/08/26 04:32:05;;;;;;;7.95;5.25;;;;;;;;;;10315472;28;20086;-64
2023/08/26 04:37:03;;;;;;;6.07;5.45;;;;;;;;;;10354157;28;20457;-63
2023/08/26 04:42:03;;;;;;;6.53;5.35;;;;;;;;;;10354869;28;20089;-63
2023/08/26 04:47:01;;;;;;;10.43;5.00;;;;;;;;;;10334910;28;20077;-63
2023/08/26 04:52:00;;;;;;;6.50;5.13;;;;;;;;;;10355132;28;20101;-63
2023/08/26 04:56:58;;;;;;;9.10;5.28;;;;;;;;;;10352917;28;20076;-63
2023/08/26 05:01:58;;;;;;;6.15;5.53;;;;;;;;;;10338875;28;20078;-63
2023/08/26 05:06:56;;;;;;;13.27;5.40;;;;;;;;;;10353942;28;20060;-63
2023/08/26 05:11:57;;;;;;;10.32;5.38;;;;;;;;;;10335432;28;20075;-63
2023/08/26 05:16:57;;;;;;;8.25;5.53;;;;;;;;;;10352662;28;20516;-63
2023/08/26 05:21:57;;;;;;;12.18;5.28;;;;;;;;;;10336235;28;20067;-63
2023/08/26 05:26:57;;;;;;;18.75;6.85;;;;;;;;;;10351995;28;20150;-63
2023/08/26 05:31:58;;;;;;;8.82;5.57;;;;;;;;;;10352397;28;20086;-63
2023/08/26 05:36:56;;;;;;;17.10;8.88;;;;;;;;;;10352374;28;20116;-63
2023/08/26 05:41:55;;;;;;;10.98;6.70;;;;;;;;;;10335346;28;20075;-63
2023/08/26 05:46:54;;;;;;;13.07;6.70;;;;;;;;;;10335133;28;20067;-63
2023/08/26 05:51:54;;;;;;;8.65;7.15;;;;;;;;;;10341594;28;20087;-62
2023/08/26 05:56:52;;;;;;;7.70;6.82;;;;;;;;;;10335283;28;20084;-63
2023/08/26 06:01:51;;;;;;;8.88;7.00;;;;;;;;;;10351784;28;20082;-64
2023/08/26 06:06:49;;;;;;;9.93;7.18;;;;;;;;;;10353170;28;20445;-63
2023/08/26 06:11:49;;;;;;;7.55;6.95;;;;;;;;;;10342501;28;20079;-62
2023/08/26 06:16:48;;;;;;;9.20;8.30;;;;;;;;;;10360738;28;20064;-62
2023/08/26 06:21:46;;;;;;;9.35;8.40;;;;;;;;;;10341869;28;20083;-63
2023/08/26 06:26:44;;;;;;;8.75;7.90;;;;;;;;;;10305751;28;20147;-64
2023/08/26 06:31:45;;;;;;;11.65;9.02;;;;;;;;;;10307771;28;20076;-64
2023/08/26 06:36:46;;;;;;;9.68;8.88;;;;;;;;;;10311838;28;20079;-64
2023/08/26 06:41:44;;;;;;;8.77;8.00;;;;;;;;;;10310053;28;20539;-64
2023/08/26 06:46:47;;;;;;;11.68;7.20;;;;;;;;;;10308088;28;20076;-64
2023/08/26 06:51:45;;;;;;;13.15;9.23;;;;;;;;;;10306695;28;20064;-64
2023/08/26 06:56:44;;;;;;;13.65;9.38;;;;;;;;;;10304797;28;20487;-63
2023/08/26 07:01:42;;;;;;;9.75;8.73;;;;;;;;;;10320782;28;20068;-63
2023/08/26 07:06:42;;;;;;;16.52;9.07;;;;;;;;;;10318970;28;20074;-62
2023/08/26 07:11:40;;;;;;;10.50;8.90;;;;;;;;;;10317096;28;20075;-63
2023/08/26 07:16:38;;;;;;;12.70;8.85;;;;;;;;;;10320027;28;20071;-64
2023/08/26 07:21:36;;;;;;;13.07;8.85;;;;;;;;;;10328762;28;20068;-63
2023/08/26 07:26:36;;;;;;;15.20;8.98;;;;;;;;;;10358947;28;20075;-63
2023/08/26 07:31:34;;;;;;;12.23;9.10;;;;;;;;;;10357889;28;20082;-63
2023/08/26 07:36:33;;;;;;;9.55;8.65;;;;;;;;;;10357493;28;20079;-63
2023/08/26 07:41:31;;;;;;;14.23;10.02;;;;;;;;;;10356930;28;20083;-62
2023/08/26 07:46:30;;;;;;;14.00;8.73;;;;;;;;;;10357314;28;20072;-63
2023/08/26 07:51:32;;;;;;;12.67;8.87;;;;;;;;;;10357344;28;20071;-63
2023/08/26 07:56:30;;;;;;;9.90;8.63;;;;;;;;;;10356848;28;20456;-63
2023/08/26 08:01:28;;;;;;;11.43;9.05;;;;;;;;;;10356320;28;20086;-63
2023/08/26 08:06:28;;;;;;;9.77;8.88;;;;;;;;;;10356466;28;20060;-63
2023/08/26 08:11:27;;;;;;;12.27;9.90;;;;;;;;;;10356477;28;20078;-63
2023/08/26 08:16:25;;;;;;;9.98;8.98;;;;;;;;;;10355401;28;20503;-63
2023/08/26 08:21:25;;;;;;;12.48;8.85;;;;;;;;;;10355699;28;20501;-62
2023/08/26 08:26:25;;;;;;;11.25;8.00;;;;;;;;;;10355615;28;20275;-63
2023/08/26 08:31:23;;;;;;;11.02;9.77;;;;;;;;;;10351634;28;20090;-63
2023/08/26 08:36:21;;;;;;;12.88;9.13;;;;;;;;;;10338826;28;20079;-64
2023/08/26 08:41:20;;;;;;;11.35;9.48;;;;;;;;;;10351156;28;20068;-63
2023/08/26 08:46:20;;;;;;;13.13;9.27;;;;;;;;;;10340921;28;20076;-63
2023/08/26 08:51:19;;;;;;;12.00;9.23;;;;;;;;;;10350581;28;20082;-65
2023/08/26 08:56:18;;;;;;;11.75;9.55;;;;;;;;;;10349009;28;20085;-64
2023/08/26 09:01:18;;;;;;;11.18;10.05;;;;;;;;;;10347766;28;20068;-63
2023/08/26 09:06:18;;;;;;;14.88;8.52;;;;;;;;;;10345958;28;20063;-63
2023/08/26 09:11:16;;;;;;;15.52;10.02;;;;;;;;;;10350568;28;20086;-64
2023/08/26 09:16:14;;;;;;;13.23;9.57;;;;;;;;;;10352753;28;20075;-64
2023/08/26 09:21:13;;;;;;;10.75;8.98;;;;;;;;;;10353738;28;20072;-63
2023/08/26 09:26:14;;;;;;;10.60;9.23;;;;;;;;;;10354671;28;20084;-63
2023/08/26 09:31:12;;;;;;;10.13;8.98;;;;;;;;;;10354143;28;20075;-63
2023/08/26 09:36:11;;;;;;;11.98;9.15;;;;;;;;;;10354293;28;20468;-64
2023/08/26 09:41:19;;;;;;;10.25;7.47;;;;;;;;;;10354118;28;20086;-63
2023/08/26 09:46:20;;;;;;;9.98;7.38;;;;;;;;;;10361851;28;20067;-61
2023/08/26 09:51:28;;;;;;;10.40;7.57;;;;;;;;;;10361968;28;20082;-62
2023/08/26 09:56:28;;;;;;;8.20;7.13;;;;;;;;;;10361582;28;20477;-63
2023/08/26 10:01:27;;;;;;;11.70;6.57;;;;;;;;;;10384655;27;20076;-64
2023/08/26 10:06:28;;;;;;;13.75;7.18;;;;;;;;;;10361543;28;20075;-62
2023/08/26 10:11:29;;;;;;;7.85;7.05;;;;;;;;;;10354603;28;20512;-64
2023/08/26 10:16:28;;;;;;;9.65;6.32;;;;;;;;;;10362967;28;20043;-64
2023/08/26 10:21:33;;;;;;;7.75;6.60;;;;;;;;;;10361054;28;20504;-63
2023/08/26 10:26:33;;;;;;;7.15;6.28;;;;;;;;;;10360779;28;20083;-63
2023/08/26 10:31:32;;;;;;;7.60;6.80;;;;;;;;;;10361034;28;20076;-63
2023/08/26 10:36:34;;;;;;;8.50;6.97;;;;;;;;;;10359610;28;20488;-63
2023/08/26 10:41:33;;;;;;;8.32;6.95;;;;;;;;;;10359947;28;20477;-64
2023/08/26 10:46:33;;;;;;;7.15;6.45;;;;;;;;;;10359727;28;20352;-63
2023/08/26 10:51:33;;;;;;;7.15;6.18;;;;;;;;;;10359050;28;20072;-63
2023/08/26 10:56:33;;;;;;;11.27;6.00;;;;;;;;;;10358054;28;20076;-63
2023/08/26 11:01:35;;;;;;;7.28;6.53;;;;;;;;;;10359512;28;20108;-63
2023/08/26 11:06:38;;;;;;;9.90;5.97;;;;;;;;;;10358804;28;20504;-63
2023/08/26 11:11:37;;;;;;;8.73;6.83;;;;;;;;;;10358740;28;20063;-63
2023/08/26 11:16:36;;;;;;;11.18;6.63;;;;;;;;;;10357847;28;20070;-63
2023/08/26 11:21:37;;;;;;;8.07;6.25;;;;;;;;;;10358465;28;20056;-63
2023/08/26 11:26:35;;;;;;;9.18;5.85;;;;;;;;;;10358341;28;20508;-64
2023/08/26 11:31:33;;;;;;;10.02;6.75;;;;;;;;;;10362373;28;20553;-63
2023/08/26 11:36:33;;;;;;;9.07;5.88;;;;;;;;;;10364740;28;20064;-64
2023/08/26 11:41:32;;;;;;;10.85;5.55;;;;;;;;;;10357110;28;20503;-63
2023/08/26 11:46:30;;;;;;;10.35;5.82;;;;;;;;;;10357482;28;20060;-64
2023/08/26 11:51:30;;;;;;;9.68;5.93;;;;;;;;;;10357019;28;20067;-64
2023/08/26 11:56:29;;;;;;;8.57;6.13;;;;;;;;;;10356508;28;20064;-64
2023/08/26 12:01:28;;;;;;;10.48;6.15;;;;;;;;;;10351772;28;20473;-63
2023/08/26 12:06:26;;;;;;;7.90;5.72;;;;;;;;;;10344699;28;20068;-64
2023/08/26 12:11:27;;;;;;;9.23;5.70;;;;;;;;;;10342873;28;20082;-64
2023/08/26 12:16:34;;;;;;;6.13;4.75;;;;;;;;;;10350232;28;20064;-64
2023/08/26 12:21:32;;;;;;;5.95;5.22;;;;;;;;;;10345160;28;20073;-64
2023/08/26 12:26:31;;;;;;;6.40;4.95;;;;;;;;;;10318230;28;20540;-61
2023/08/26 12:31:34;;;;;;;8.65;5.30;;;;;;;;;;10314934;28;20083;-62
2023/08/26 12:36:32;;;;;;;10.65;4.88;;;;;;;;;;10313574;28;20071;-61
2023/08/26 12:41:30;;;;;;;12.50;5.72;;;;;;;;;;10305334;28;20072;-62
2023/08/26 12:46:30;;;;;;;9.52;4.65;;;;;;;;;;10309741;28;20072;-63
2023/08/26 12:51:28;;;;;;;7.28;5.15;;;;;;;;;;10308184;28;20071;-63
2023/08/26 12:56:27;;;;;;;13.32;5.03;;;;;;;;;;10313095;28;20828;-63
2023/08/26 13:01:25;;;;;;;10.50;5.40;;;;;;;;;;10313569;28;20071;-63
2023/08/26 13:06:25;;;;;;;7.90;5.40;;;;;;;;;;10312992;28;20076;-63
2023/08/26 13:11:23;;;;;;;9.07;5.28;;;;;;;;;;10312754;28;20071;-63
2023/08/26 13:16:21;;;;;;;7.25;5.53;;;;;;;;;;10312689;28;20079;-63
2023/08/26 13:21:20;;;;;;;8.57;4.80;;;;;;;;;;10312227;28;20539;-63
2023/08/26 13:26:19;;;;;;;6.30;5.10;;;;;;;;;;10346723;28;20079;-62
2023/08/26 13:31:18;;;;;;;6.18;5.05;;;;;;;;;;10351754;28;20091;-62
2023/08/26 13:36:16;;;;;;;8.98;5.50;;;;;;;;;;10353740;28;20068;-61
2023/08/26 13:41:14;;;;;;;8.18;4.90;;;;;;;;;;10353087;28;20371;-62
2023/08/26 13:46:14;;;;;;;6.82;5.65;;;;;;;;;;10352770;28;20497;-63
2023/08/26 13:51:12;;;;;;;11.27;6.20;;;;;;;;;;10351403;28;20086;-63
2023/08/26 13:56:10;;;;;;;8.27;5.38;;;;;;;;;;10346330;28;20067;-62
2023/08/26 14:01:09;;;;;;;8.32;5.65;;;;;;;;;;10351590;28;20484;-63
2023/08/26 14:06:09;;;;;;;6.97;5.63;;;;;;;;;;10343453;28;20059;-63
2023/08/26 14:11:07;;;;;;;7.68;5.88;;;;;;;;;;10343331;28;20075;-63
2023/08/26 14:16:05;;;;;;;6.22;4.95;;;;;;;;;;10347127;28;20878;-64
2023/08/26 14:21:04;;;;;;;6.80;5.30;;;;;;;;;;10337625;28;20063;-63
2023/08/26 14:26:03;;;;;;;5.03;4.53;;;;;;;;;;10350085;28;20075;-63
2023/08/26 14:31:01;;;;;;;10.00;5.75;;;;;;;;;;10351452;28;20086;-63
2023/08/26 14:36:00;;;;;;;13.05;5.88;;;;;;;;;;10355426;28;20079;-62
2023/08/26 14:40:59;;;;;;;10.65;4.70;;;;;;;;;;10352207;28;20074;-63
2023/08/26 14:45:58;;;;;;;12.60;5.80;;;;;;;;;;10352170;28;20075;-62
2023/08/26 14:50:57;;;;;;;11.25;5.55;;;;;;;;;;10351011;28;20497;-62
2023/08/26 14:55:56;;;;;;;11.73;5.10;;;;;;;;;;10356117;28;20481;-62
2023/08/26 15:00:59;;;;;;;8.13;4.65;;;;;;;;;;10356438;28;20067;-62
2023/08/26 15:05:58;;;;;;;8.55;4.75;;;;;;;;;;10357367;28;20063;-63
2023/08/26 15:10:56;;;;;;;8.50;5.22;;;;;;;;;;10356900;28;20068;-62
2023/08/26 15:15:54;;;;;;;7.53;5.20;;;;;;;;;;10345344;28;20083;-62
2023/08/26 15:20:55;;;;;;;7.55;5.00;;;;;;;;;;10357865;28;20079;-62
2023/08/26 15:25:55;;;;;;;9.65;5.50;;;;;;;;;;10358073;28;20083;-62
2023/08/26 15:30:54;;;;;;;10.27;5.32;;;;;;;;;;10356980;28;20075;-62
2023/08/26 15:35:54;;;;;;;11.80;6.38;;;;;;;;;;10356365;28;20067;-63
2023/08/26 15:40:53;;;;;;;7.25;5.45;;;;;;;;;;10355801;28;20075;-63
2023/08/26 15:45:51;;;;;;;11.65;5.70;;;;;;;;;;10356941;28;20060;-62
2023/08/26 15:50:50;;;;;;;10.68;5.47;;;;;;;;;;10356698;28;20261;-62
2023/08/26 15:55:50;;;;;;;8.10;4.97;;;;;;;;;;10352024;28;20095;-62
2023/08/26 16:00:48;;;;;;;9.52;4.32;;;;;;;;;;10347446;28;20064;-62
2023/08/26 16:05:48;;;;;;;10.50;4.80;;;;;;;;;;10353829;28;20079;-62
2023/08/26 16:10:46;;;;;;;9.90;5.00;;;;;;;;;;10349720;28;20067;-63
2023/08/26 16:15:45;;;;;;;9.02;5.20;;;;;;;;;;10336098;28;20063;-64
2023/08/26 16:20:45;;;;;;;9.98;5.45;;;;;;;;;;10349810;28;20074;-63
2023/08/26 16:25:43;;;;;;;13.68;4.82;;;;;;;;;;10351381;28;20087;-63
2023/08/26 16:30:42;;;;;;;7.05;4.85;;;;;;;;;;10350124;28;20472;-63
2023/08/26 16:35:41;;;;;;;12.32;5.50;;;;;;;;;;10353511;28;20063;-62
2023/08/26 16:40:39;;;;;;;7.50;5.50;;;;;;;;;;10352015;28;20068;-63
2023/08/26 16:45:38;;;;;;;13.38;6.45;;;;;;;;;;10353171;28;20076;-63
2023/08/26 16:50:39;;;;;;;8.38;5.88;;;;;;;;;;10348621;28;20060;-63
2023/08/26 16:55:39;;;;;;;11.20;5.65;;;;;;;;;;10347395;28;20079;-62
2023/08/26 17:00:37;;;;;;;13.23;5.70;;;;;;;;;;10349027;28;20079;-63
2023/08/26 17:05:36;;;;;;;12.07;6.30;;;;;;;;;;10340858;28;20071;-63
2023/08/26 17:10:34;;;;;;;7.85;5.95;;;;;;;;;;10345097;28;20642;-62
2023/08/26 17:15:33;;;;;;;9.65;7.10;;;;;;;;;;10341833;28;20067;-63
2023/08/26 17:20:32;;;;;;;11.25;6.07;;;;;;;;;;10353649;28;20072;-62
2023/08/26 17:25:30;;;;;;;7.45;5.00;;;;;;;;;;10348554;28;20091;-63
2023/08/26 17:30:29;;;;;;;9.50;6.80;;;;;;;;;;10341164;28;20087;-63
2023/08/26 17:35:34;;;;;;;9.65;5.50;;;;;;;;;;10349630;28;20075;-63
2023/08/26 17:40:32;;;;;;;6.97;6.28;;;;;;;;;;10352879;28;20086;-63
2023/08/26 17:45:31;;;;;;;6.97;5.85;;;;;;;;;;10352582;28;20068;-63
2023/08/26 17:50:31;;;;;;;13.68;8.02;;;;;;;;;;10352910;28;20067;-66
2023/08/26 17:55:29;;;;;;;17.80;13.07;;;;;;;;;;10351019;28;20064;-62
2023/08/26 18:00:27;;;;;;;11.13;8.15;;;;;;;;;;10345645;28;20071;-62
2023/08/26 18:05:25;;;;;;;7.43;6.80;;;;;;;;;;10355186;28;20067;-63
2023/08/26 18:10:25;;;;;;;9.93;8.10;;;;;;;;;;10360173;28;20068;-63
2023/08/26 18:15:23;;;;;;;9.07;7.90;;;;;;;;;;10347903;28;20063;-64
2023/08/26 18:20:22;;;;;;;10.70;7.97;;;;;;;;;;10357656;28;20479;-63
2023/08/26 18:25:20;;;;;;;9.90;8.50;;;;;;;;;;10358850;28;20555;-62
2023/08/26 18:30:20;;;;;;;11.77;9.00;;;;;;;;;;10360757;28;21878;-62
2023/08/26 18:35:18;;;;;;;9.07;8.10;;;;;;;;;;10359667;28;20102;-64
2023/08/26 18:40:17;;;;;;;11.65;10.18;;;;;;;;;;10358942;28;20103;-62
2023/08/26 18:45:16;;;;;;;10.52;8.48;;;;;;;;;;10359835;28;20484;-62
2023/08/26 18:50:15;;;;;;;11.00;8.40;;;;;;;;;;10350309;28;20087;-62
2023/08/26 18:55:13;;;;;;;12.43;8.82;;;;;;;;;;10354754;28;20071;-62
2023/08/26 19:00:12;;;;;;;9.88;8.10;;;;;;;;;;10359544;28;20075;-61
2023/08/26 19:05:10;;;;;;;10.02;8.82;;;;;;;;;;10357293;28;20488;-62
2023/08/26 19:10:13;;;;;;;12.35;7.85;;;;;;;;;;10350189;28;20075;-63
2023/08/26 19:15:12;;;;;;;9.85;7.22;;;;;;;;;;10355817;28;20087;-63
2023/08/26 19:20:10;;;;;;;8.85;7.93;;;;;;;;;;10350036;28;20072;-63
2023/08/26 19:25:09;;;;;;;8.80;7.53;;;;;;;;;;10353240;28;20515;-63
2023/08/26 19:30:09;;;;;;;10.82;8.20;;;;;;;;;;10352066;28;20082;-62
2023/08/26 19:35:08;;;;;;;12.40;9.02;;;;;;;;;;10356801;28;20075;-63
2023/08/26 19:40:07;;;;;;;10.10;8.10;;;;;;;;;;10357302;28;20521;-62
2023/08/26 19:45:05;;;;;;;11.70;9.52;;;;;;;;;;10356369;28;20071;-63
2023/08/26 19:50:05;;;;;;;9.43;8.48;;;;;;;;;;10355804;28;20075;-62
2023/08/26 19:55:04;;;;;;;9.35;7.97;;;;;;;;;;10343687;28;20083;-62
2023/08/26 20:00:03;;;;;;;8.80;7.90;;;;;;;;;;10356432;28;20072;-63
2023/08/26 20:05:10;;;;;;;8.38;6.82;;;;;;;;;;10361116;28;20075;-62
2023/08/26 20:10:09;;;;;;;8.98;6.80;;;;;;;;;;10355279;28;20518;-62
2023/08/26 20:15:07;;;;;;;7.25;6.53;;;;;;;;;;10355434;28;20079;-63
2023/08/26 20:20:06;;;;;;;8.02;6.47;;;;;;;;;;10355105;28;20078;-62
2023/08/26 20:25:07;;;;;;;11.70;6.47;;;;;;;;;;10355056;28;20084;-63
2023/08/26 20:30:07;;;;;;;6.50;5.80;;;;;;;;;;10354896;28;20092;-61
2023/08/26 20:35:07;;;;;;;6.60;5.70;;;;;;;;;;10354182;28;20071;-62
2023/08/26 20:40:07;;;;;;;7.32;5.63;;;;;;;;;;10354404;28;20067;-62
2023/08/26 20:45:06;;;;;;;12.00;5.32;;;;;;;;;;10350764;28;20082;-62
2023/08/26 20:50:11;;;;;;;6.53;5.60;;;;;;;;;;10344648;28;20508;-63
2023/08/26 20:55:11;;;;;;;5.90;5.25;;;;;;;;;;10346981;28;20590;-63
2023/08/26 21:00:10;;;;;;;8.02;5.35;;;;;;;;;;10338117;28;20060;-63
2023/08/26 21:05:09;;;;;;;5.75;5.22;;;;;;;;;;10330638;28;20068;-63
2023/08/26 21:10:08;;;;;;;6.18;5.15;;;;;;;;;;10342820;28;20541;-62
2023/08/26 21:15:08;;;;;;;6.35;4.13;;;;;;;;;;10348887;28;20126;-63
2023/08/26 21:20:07;;;;;;;6.38;4.63;;;;;;;;;;10337890;28;20083;-62
2023/08/26 21:25:07;;;;;;;12.77;4.72;;;;;;;;;;10342932;28;20075;-63
2023/08/26 21:30:06;;;;;;;5.97;4.30;;;;;;;;;;10338883;28;20075;-62
2023/08/26 21:35:06;;;;;;;9.40;4.40;;;;;;;;;;10350295;28;20091;-63
2023/08/26 21:40:06;;;;;;;8.40;4.32;;;;;;;;;;10356012;28;20462;-63
2023/08/26 21:45:06;;;;;;;7.20;4.45;;;;;;;;;;10348030;28;20121;-62
2023/08/26 21:50:09;;;;;;;3.80;3.47;;;;;;;;;;10346168;28;20111;-63
2023/08/26 21:55:08;;;;;;;5.95;3.97;;;;;;;;;;10356729;28;20095;-63
2023/08/26 22:00:11;;;;;;;5.88;3.88;;;;;;;;;;10359770;28;20084;-63
2023/08/26 22:05:15;;;;;;;4.57;4.10;;;;;;;;;;10361540;28;20071;-63
2023/08/26 22:10:13;;;;;;;6.88;3.75;;;;;;;;;;10361708;28;20071;-63
2023/08/26 22:15:12;;;;;;;5.43;3.63;;;;;;;;;;10360605;28;20500;-63
2023/08/26 22:20:10;;;;;;;4.97;4.18;;;;;;;;;;10358702;28;20520;-63
2023/08/26 22:25:10;;;;;;;5.95;3.90;;;;;;;;;;10359005;28;20083;-61
2023/08/26 22:30:09;;;;;;;5.63;3.10;;;;;;;;;;10359684;28;20072;-62
2023/08/26 22:35:08;;;;;;;4.18;3.78;;;;;;;;;;10360214;28;20075;-62
2023/08/26 22:40:07;;;;;;;4.30;3.90;;;;;;;;;;10359505;28;20068;-62
2023/08/26 22:45:07;;;;;;;5.82;3.90;;;;;;;;;;10358986;28;20079;-63
2023/08/26 22:50:06;;;;;;;5.38;3.90;;;;;;;;;;10359357;28;20459;-63
2023/08/26 22:55:05;;;;;;;5.20;3.90;;;;;;;;;;10359445;28;20083;-62
2023/08/26 23:00:06;;;;;;;4.78;3.97;;;;;;;;;;10359765;28;20082;-63
2023/08/26 23:05:06;;;;;;;4.40;3.45;;;;;;;;;;10359170;28;20078;-63
2023/08/26 23:10:05;;;;;;;4.13;3.63;;;;;;;;;;10358333;28;20086;-63
2023/08/26 23:15:03;;;;;;;5.75;4.10;;;;;;;;;;10358684;28;20079;-63
2023/08/26 23:20:02;;;;;;;4.47;3.80;;;;;;;;;;10358959;28;20461;-63
2023/08/26 23:25:02;;;;;;;4.15;3.75;;;;;;;;;;10357719;28;20067;-63
2023/08/26 23:30:00;;;;;;;7.65;4.05;;;;;;;;;;10358313;28;20056;-62
2023/08/26 23:35:04;;;;;;;5.93;3.90;;;;;;;;;;10358384;28;20067;-62
2023/08/26 23:40:05;;;;;;;4.55;3.60;;;;;;;;;;10357865;28;20076;-62
2023/08/26 23:45:03;;;;;;;4.78;3.67;;;;;;;;;;10357787;28;20083;-63
2023/08/26 23:50:02;;;;;;;6.15;4.05;;;;;;;;;;10355872;28;20051;-62
2023/08/26 23:55:00;;;;;;;5.00;3.72;;;;;;;;;;10356494;28;20084;-62
2023/08/26 23:59:59;;;;;;;4.53;4.07;;;;;;;;;;10356773;28;20071;-63
